sensor_id;sensor_type;location;lat;lon;timestamp;pressure;altitude;pressure_sealevel;temperature;humidity
79690;BME280;69156;55.932;-3.238;2023-06-19T00:00:30;99976.26;;;16.65;79.24
79690;BME280;69156;55.932;-3.238;2023-06-19T00:02:55;99968.85;;;16.57;79.25
79690;BME280;69156;55.932;-3.238;2023-06-19T00:05:21;99957.57;;;16.64;79.24
79690;BME280;69156;55.932;-3.238;2023-06-19T00:07:46;99955.18;;;16.68;78.66
79690;BME280;69156;55.932;-3.238;2023-06-19T00:10:11;99943.96;;;16.58;78.94
79690;BME280;69156;55.932;-3.238;2023-06-19T00:12:36;99941.92;;;16.58;79.27
79690;BME280;69156;55.932;-3.238;2023-06-19T00:15:02;99930.40;;;16.60;79.19
79690;BME280;69156;55.932;-3.238;2023-06-19T00:17:28;99931.89;;;16.52;79.00
79690;BME280;69156;55.932;-3.238;2023-06-19T00:19:53;99921.77;;;16.53;79.27
79690;BME280;69156;55.932;-3.238;2023-06-19T00:22:19;99922.04;;;16.55;79.71
79690;BME280;69156;55.932;-3.238;2023-06-19T00:24:44;99921.28;;;16.51;79.54
79690;BME280;69156;55.932;-3.238;2023-06-19T00:27:10;99908.39;;;16.45;79.77
79690;BME280;69156;55.932;-3.238;2023-06-19T00:29:35;99908.85;;;16.65;79.61
79690;BME280;69156;55.932;-3.238;2023-06-19T00:32:00;99895.63;;;16.53;79.88
79690;BME280;69156;55.932;-3.238;2023-06-19T00:34:28;99884.89;;;16.46;79.93
79690;BME280;69156;55.932;-3.238;2023-06-19T00:36:52;99873.23;;;16.37;79.81
79690;BME280;69156;55.932;-3.238;2023-06-19T00:39:17;99876.39;;;16.49;79.92
79690;BME280;69156;55.932;-3.238;2023-06-19T00:41:43;99874.19;;;16.57;79.45
79690;BME280;69156;55.932;-3.238;2023-06-19T00:44:07;99872.10;;;16.51;79.52
79690;BME280;69156;55.932;-3.238;2023-06-19T00:46:35;99873.35;;;16.47;79.68
79690;BME280;69156;55.932;-3.238;2023-06-19T00:48:58;99857.71;;;16.64;79.64
79690;BME280;69156;55.932;-3.238;2023-06-19T00:51:24;99853.76;;;16.54;79.72
79690;BME280;69156;55.932;-3.238;2023-06-19T00:53:49;99849.35;;;16.58;79.59
79690;BME280;69156;55.932;-3.238;2023-06-19T00:56:15;99838.28;;;16.62;79.58
79690;BME280;69156;55.932;-3.238;2023-06-19T00:58:40;99850.84;;;16.55;79.61
79690;BME280;69156;55.932;-3.238;2023-06-19T01:01:06;99840.60;;;16.65;79.39
79690;BME280;69156;55.932;-3.238;2023-06-19T01:03:31;99838.29;;;16.53;79.44
79690;BME280;69156;55.932;-3.238;2023-06-19T01:05:57;99830.74;;;16.46;79.64
79690;BME280;69156;55.932;-3.238;2023-06-19T01:08:40;99827.54;;;16.55;79.94
79690;BME280;69156;55.932;-3.238;2023-06-19T01:10:50;99832.96;;;16.59;80.01
79690;BME280;69156;55.932;-3.238;2023-06-19T01:13:17;99839.05;;;16.56;80.12
79690;BME280;69156;55.932;-3.238;2023-06-19T01:15:40;99828.18;;;16.57;80.18
79690;BME280;69156;55.932;-3.238;2023-06-19T01:18:05;99819.82;;;16.52;80.15
79690;BME280;69156;55.932;-3.238;2023-06-19T01:20:30;99815.54;;;16.59;80.18
79690;BME280;69156;55.932;-3.238;2023-06-19T01:22:56;99808.21;;;16.52;80.11
79690;BME280;69156;55.932;-3.238;2023-06-19T01:25:22;99806.67;;;16.64;80.13
79690;BME280;69156;55.932;-3.238;2023-06-19T01:27:47;99807.14;;;16.59;80.06
79690;BME280;69156;55.932;-3.238;2023-06-19T01:30:12;99801.95;;;16.71;80.04
79690;BME280;69156;55.932;-3.238;2023-06-19T01:32:43;99802.97;;;16.65;79.53
79690;BME280;69156;55.932;-3.238;2023-06-19T01:35:04;99799.01;;;16.67;79.45
79690;BME280;69156;55.932;-3.238;2023-06-19T01:37:28;99793.80;;;16.63;79.56
79690;BME280;69156;55.932;-3.238;2023-06-19T01:39:56;99786.40;;;16.64;80.12
79690;BME280;69156;55.932;-3.238;2023-06-19T01:42:20;99776.31;;;16.69;79.82
79690;BME280;69156;55.932;-3.238;2023-06-19T01:44:45;99767.46;;;16.63;79.40
79690;BME280;69156;55.932;-3.238;2023-06-19T01:47:10;99762.27;;;16.67;79.86
79690;BME280;69156;55.932;-3.238;2023-06-19T01:49:36;99747.41;;;16.57;79.29
79690;BME280;69156;55.932;-3.238;2023-06-19T01:52:01;99741.35;;;16.78;78.86
79690;BME280;69156;55.932;-3.238;2023-06-19T01:54:26;99733.01;;;16.85;78.56
79690;BME280;69156;55.932;-3.238;2023-06-19T01:56:51;99727.78;;;16.68;78.98
79690;BME280;69156;55.932;-3.238;2023-06-19T01:59:16;99717.21;;;16.83;78.25
79690;BME280;69156;55.932;-3.238;2023-06-19T02:01:42;99712.22;;;16.77;78.65
79690;BME280;69156;55.932;-3.238;2023-06-19T02:04:08;99704.42;;;16.72;79.15
79690;BME280;69156;55.932;-3.238;2023-06-19T02:06:34;99699.26;;;16.60;79.58
79690;BME280;69156;55.932;-3.238;2023-06-19T02:09:00;99689.90;;;16.61;79.54
79690;BME280;69156;55.932;-3.238;2023-06-19T02:11:25;99689.32;;;16.64;80.15
79690;BME280;69156;55.932;-3.238;2023-06-19T02:13:51;99683.73;;;16.72;80.00
79690;BME280;69156;55.932;-3.238;2023-06-19T02:16:16;99679.72;;;16.66;80.08
79690;BME280;69156;55.932;-3.238;2023-06-19T02:18:41;99675.01;;;16.83;79.89
79690;BME280;69156;55.932;-3.238;2023-06-19T02:21:07;99673.28;;;16.78;79.80
79690;BME280;69156;55.932;-3.238;2023-06-19T02:23:33;99669.82;;;16.77;79.44
79690;BME280;69156;55.932;-3.238;2023-06-19T02:25:58;99669.08;;;16.86;79.25
79690;BME280;69156;55.932;-3.238;2023-06-19T02:28:24;99661.74;;;16.81;79.43
79690;BME280;69156;55.932;-3.238;2023-06-19T02:30:49;99661.39;;;16.85;79.07
79690;BME280;69156;55.932;-3.238;2023-06-19T02:33:15;99656.98;;;16.86;79.33
79690;BME280;69156;55.932;-3.238;2023-06-19T02:35:40;99658.97;;;16.73;79.62
79690;BME280;69156;55.932;-3.238;2023-06-19T02:38:06;99652.42;;;16.79;79.72
79690;BME280;69156;55.932;-3.238;2023-06-19T02:40:31;99652.60;;;16.86;79.51
79690;BME280;69156;55.932;-3.238;2023-06-19T02:42:56;99650.66;;;16.86;79.53
79690;BME280;69156;55.932;-3.238;2023-06-19T02:45:22;99649.62;;;16.91;79.71
79690;BME280;69156;55.932;-3.238;2023-06-19T02:47:47;99647.24;;;16.87;79.64
79690;BME280;69156;55.932;-3.238;2023-06-19T02:50:13;99645.26;;;16.85;79.57
79690;BME280;69156;55.932;-3.238;2023-06-19T02:52:39;99645.80;;;16.90;79.60
79690;BME280;69156;55.932;-3.238;2023-06-19T02:55:05;99642.47;;;16.77;79.73
79690;BME280;69156;55.932;-3.238;2023-06-19T02:57:30;99643.25;;;16.85;79.91
79690;BME280;69156;55.932;-3.238;2023-06-19T02:59:55;99633.78;;;16.94;79.66
79690;BME280;69156;55.932;-3.238;2023-06-19T03:02:21;99629.49;;;16.91;79.64
79690;BME280;69156;55.932;-3.238;2023-06-19T03:04:47;99627.83;;;16.88;79.72
79690;BME280;69156;55.932;-3.238;2023-06-19T03:07:12;99625.75;;;16.86;80.07
79690;BME280;69156;55.932;-3.238;2023-06-19T03:09:38;99626.68;;;16.88;80.10
79690;BME280;69156;55.932;-3.238;2023-06-19T03:12:04;99624.96;;;17.00;80.10
79690;BME280;69156;55.932;-3.238;2023-06-19T03:14:29;99624.93;;;16.94;80.31
79690;BME280;69156;55.932;-3.238;2023-06-19T03:16:56;99625.76;;;16.97;80.35
79690;BME280;69156;55.932;-3.238;2023-06-19T03:19:26;99621.11;;;17.06;80.19
79690;BME280;69156;55.932;-3.238;2023-06-19T03:21:51;99622.04;;;16.98;80.60
79690;BME280;69156;55.932;-3.238;2023-06-19T03:24:17;99621.63;;;17.00;80.25
79690;BME280;69156;55.932;-3.238;2023-06-19T03:26:48;99618.79;;;17.03;80.09
79690;BME280;69156;55.932;-3.238;2023-06-19T03:29:12;99611.23;;;17.05;80.04
79690;BME280;69156;55.932;-3.238;2023-06-19T03:31:38;99611.08;;;17.14;79.95
79690;BME280;69156;55.932;-3.238;2023-06-19T03:34:04;99608.34;;;17.05;80.12
79690;BME280;69156;55.932;-3.238;2023-06-19T03:36:29;99603.59;;;16.97;80.09
79690;BME280;69156;55.932;-3.238;2023-06-19T03:38:58;99605.50;;;17.08;80.03
79690;BME280;69156;55.932;-3.238;2023-06-19T03:41:31;99607.83;;;16.96;80.19
79690;BME280;69156;55.932;-3.238;2023-06-19T03:43:56;99610.97;;;16.94;80.36
79690;BME280;69156;55.932;-3.238;2023-06-19T03:46:23;99609.48;;;16.99;80.35
79690;BME280;69156;55.932;-3.238;2023-06-19T03:48:46;99608.38;;;17.08;79.94
79690;BME280;69156;55.932;-3.238;2023-06-19T03:51:15;99604.88;;;17.00;80.73
79690;BME280;69156;55.932;-3.238;2023-06-19T03:53:40;99600.80;;;16.93;80.75
79690;BME280;69156;55.932;-3.238;2023-06-19T03:56:15;99600.46;;;17.12;80.53
79690;BME280;69156;55.932;-3.238;2023-06-19T03:58:35;99599.88;;;17.04;80.24
79690;BME280;69156;55.932;-3.238;2023-06-19T04:01:03;99603.57;;;17.09;80.18
79690;BME280;69156;55.932;-3.238;2023-06-19T04:03:30;99599.12;;;17.10;80.16
79690;BME280;69156;55.932;-3.238;2023-06-19T04:05:55;99593.45;;;16.95;80.33
79690;BME280;69156;55.932;-3.238;2023-06-19T04:08:19;99588.34;;;16.98;80.42
79690;BME280;69156;55.932;-3.238;2023-06-19T04:10:47;99583.63;;;17.02;80.34
79690;BME280;69156;55.932;-3.238;2023-06-19T04:13:13;99582.95;;;17.36;79.05
79690;BME280;69156;55.932;-3.238;2023-06-19T04:15:41;99585.73;;;17.33;79.18
79690;BME280;69156;55.932;-3.238;2023-06-19T04:18:08;99589.54;;;17.19;79.74
79690;BME280;69156;55.932;-3.238;2023-06-19T04:20:31;99589.23;;;17.19;80.36
79690;BME280;69156;55.932;-3.238;2023-06-19T04:23:00;99591.00;;;17.04;80.38
79690;BME280;69156;55.932;-3.238;2023-06-19T04:25:24;99593.07;;;17.10;80.15
79690;BME280;69156;55.932;-3.238;2023-06-19T04:27:50;99596.32;;;17.13;80.15
79690;BME280;69156;55.932;-3.238;2023-06-19T04:30:16;99602.51;;;17.18;80.22
79690;BME280;69156;55.932;-3.238;2023-06-19T04:32:42;99608.80;;;17.30;79.91
79690;BME280;69156;55.932;-3.238;2023-06-19T04:35:08;99611.69;;;17.31;80.20
79690;BME280;69156;55.932;-3.238;2023-06-19T04:37:48;99609.11;;;17.32;79.90
79690;BME280;69156;55.932;-3.238;2023-06-19T04:40:16;99605.65;;;17.24;79.40
79690;BME280;69156;55.932;-3.238;2023-06-19T04:42:39;99599.30;;;17.15;78.88
79690;BME280;69156;55.932;-3.238;2023-06-19T04:45:06;99595.24;;;17.22;78.77
79690;BME280;69156;55.932;-3.238;2023-06-19T04:47:34;99591.35;;;17.12;78.78
79690;BME280;69156;55.932;-3.238;2023-06-19T04:49:57;99592.52;;;17.08;78.73
79690;BME280;69156;55.932;-3.238;2023-06-19T04:52:23;99598.53;;;17.21;78.84
79690;BME280;69156;55.932;-3.238;2023-06-19T04:54:48;99603.46;;;17.05;77.96
79690;BME280;69156;55.932;-3.238;2023-06-19T04:57:25;99611.61;;;17.01;77.85
79690;BME280;69156;55.932;-3.238;2023-06-19T04:59:42;99615.77;;;17.00;78.71
79690;BME280;69156;55.932;-3.238;2023-06-19T05:02:07;99621.60;;;17.11;78.10
79690;BME280;69156;55.932;-3.238;2023-06-19T05:04:35;99627.89;;;17.13;77.87
79690;BME280;69156;55.932;-3.238;2023-06-19T05:07:00;99627.04;;;17.23;77.66
79690;BME280;69156;55.932;-3.238;2023-06-19T05:09:31;99624.48;;;17.27;76.81
79690;BME280;69156;55.932;-3.238;2023-06-19T05:11:56;99622.51;;;17.28;76.05
79690;BME280;69156;55.932;-3.238;2023-06-19T05:14:22;99625.50;;;17.37;76.34
79690;BME280;69156;55.932;-3.238;2023-06-19T05:16:49;99627.55;;;17.27;74.93
79690;BME280;69156;55.932;-3.238;2023-06-19T05:19:12;99627.99;;;17.31;75.28
79690;BME280;69156;55.932;-3.238;2023-06-19T05:21:48;99626.93;;;17.29;75.37
79690;BME280;69156;55.932;-3.238;2023-06-19T05:24:14;99626.72;;;17.37;74.89
79690;BME280;69156;55.932;-3.238;2023-06-19T05:26:42;99630.94;;;17.27;74.79
79690;BME280;69156;55.932;-3.238;2023-06-19T05:29:05;99637.89;;;17.33;75.26
79690;BME280;69156;55.932;-3.238;2023-06-19T05:31:31;99640.07;;;17.40;74.90
79690;BME280;69156;55.932;-3.238;2023-06-19T05:33:58;99638.95;;;17.52;73.83
79690;BME280;69156;55.932;-3.238;2023-06-19T05:36:24;99642.82;;;17.55;73.83
79690;BME280;69156;55.932;-3.238;2023-06-19T05:38:53;99647.31;;;17.39;73.76
79690;BME280;69156;55.932;-3.238;2023-06-19T05:41:16;99649.47;;;17.54;73.24
79690;BME280;69156;55.932;-3.238;2023-06-19T05:43:42;99654.34;;;17.51;74.10
79690;BME280;69156;55.932;-3.238;2023-06-19T05:46:06;99654.70;;;17.53;72.95
79690;BME280;69156;55.932;-3.238;2023-06-19T05:48:34;99659.89;;;17.48;73.36
79690;BME280;69156;55.932;-3.238;2023-06-19T05:51:06;99662.42;;;17.41;73.00
79690;BME280;69156;55.932;-3.238;2023-06-19T05:53:26;99666.86;;;17.40;72.99
79690;BME280;69156;55.932;-3.238;2023-06-19T05:55:49;99671.74;;;17.63;72.62
79690;BME280;69156;55.932;-3.238;2023-06-19T05:58:14;99673.20;;;17.44;72.21
79690;BME280;69156;55.932;-3.238;2023-06-19T06:00:39;99670.45;;;17.70;72.34
79690;BME280;69156;55.932;-3.238;2023-06-19T06:03:06;99672.21;;;17.74;72.21
79690;BME280;69156;55.932;-3.238;2023-06-19T06:05:32;99670.46;;;17.73;71.97
79690;BME280;69156;55.932;-3.238;2023-06-19T06:07:58;99668.93;;;17.75;72.02
79690;BME280;69156;55.932;-3.238;2023-06-19T06:10:24;99663.99;;;17.38;72.30
79690;BME280;69156;55.932;-3.238;2023-06-19T06:12:49;99662.86;;;17.36;71.53
79690;BME280;69156;55.932;-3.238;2023-06-19T06:15:16;99667.69;;;17.46;71.76
79690;BME280;69156;55.932;-3.238;2023-06-19T06:17:41;99669.42;;;17.59;71.63
79690;BME280;69156;55.932;-3.238;2023-06-19T06:20:10;99669.02;;;17.51;71.21
79690;BME280;69156;55.932;-3.238;2023-06-19T06:22:33;99668.35;;;17.55;71.16
79690;BME280;69156;55.932;-3.238;2023-06-19T06:25:01;99666.43;;;17.58;71.08
79690;BME280;69156;55.932;-3.238;2023-06-19T06:27:25;99670.70;;;17.53;71.32
79690;BME280;69156;55.932;-3.238;2023-06-19T06:29:53;99667.82;;;17.82;70.58
79690;BME280;69156;55.932;-3.238;2023-06-19T06:32:25;99673.02;;;17.89;70.92
79690;BME280;69156;55.932;-3.238;2023-06-19T06:34:51;99673.46;;;17.73;70.73
79690;BME280;69156;55.932;-3.238;2023-06-19T06:37:16;99674.02;;;17.82;69.56
79690;BME280;69156;55.932;-3.238;2023-06-19T06:39:41;99676.19;;;17.95;69.21
79690;BME280;69156;55.932;-3.238;2023-06-19T06:42:06;99684.61;;;18.12;68.70
79690;BME280;69156;55.932;-3.238;2023-06-19T06:44:31;99683.02;;;18.01;67.82
79690;BME280;69156;55.932;-3.238;2023-06-19T06:47:00;99685.78;;;18.01;68.26
79690;BME280;69156;55.932;-3.238;2023-06-19T06:49:27;99687.24;;;18.18;69.08
79690;BME280;69156;55.932;-3.238;2023-06-19T06:51:48;99687.43;;;18.20;68.36
79690;BME280;69156;55.932;-3.238;2023-06-19T06:54:15;99691.70;;;18.25;68.54
79690;BME280;69156;55.932;-3.238;2023-06-19T06:56:43;99691.99;;;18.34;67.85
79690;BME280;69156;55.932;-3.238;2023-06-19T06:59:08;99695.40;;;18.38;67.08
79690;BME280;69156;55.932;-3.238;2023-06-19T07:03:21;99699.80;;;18.69;67.02
79690;BME280;69156;55.932;-3.238;2023-06-19T07:05:48;99696.60;;;18.58;65.63
79690;BME280;69156;55.932;-3.238;2023-06-19T07:08:15;99689.18;;;18.61;65.32
79690;BME280;69156;55.932;-3.238;2023-06-19T07:10:42;99688.08;;;18.57;66.22
79690;BME280;69156;55.932;-3.238;2023-06-19T07:13:08;99691.21;;;18.58;65.85
79690;BME280;69156;55.932;-3.238;2023-06-19T07:15:33;99691.32;;;18.62;65.73
79690;BME280;69156;55.932;-3.238;2023-06-19T07:18:00;99694.74;;;18.66;65.95
79690;BME280;69156;55.932;-3.238;2023-06-19T07:20:24;99693.04;;;19.00;65.18
79690;BME280;69156;55.932;-3.238;2023-06-19T07:22:51;99694.47;;;18.98;65.07
79690;BME280;69156;55.932;-3.238;2023-06-19T07:25:15;99696.33;;;18.95;65.45
79690;BME280;69156;55.932;-3.238;2023-06-19T07:27:41;99700.55;;;18.92;64.41
79690;BME280;69156;55.932;-3.238;2023-06-19T07:30:12;99704.35;;;19.23;63.92
79690;BME280;69156;55.932;-3.238;2023-06-19T07:32:35;99707.33;;;19.34;63.66
79690;BME280;69156;55.932;-3.238;2023-06-19T07:35:01;99708.04;;;19.23;63.73
79690;BME280;69156;55.932;-3.238;2023-06-19T07:37:26;99709.47;;;19.22;63.82
79690;BME280;69156;55.932;-3.238;2023-06-19T07:39:52;99710.55;;;19.25;64.16
79690;BME280;69156;55.932;-3.238;2023-06-19T07:42:19;99710.36;;;19.23;62.33
79690;BME280;69156;55.932;-3.238;2023-06-19T07:45:18;99711.55;;;19.41;60.90
79690;BME280;69156;55.932;-3.238;2023-06-19T07:47:10;99709.78;;;19.60;61.06
79690;BME280;69156;55.932;-3.238;2023-06-19T07:49:36;99708.87;;;19.51;62.06
79690;BME280;69156;55.932;-3.238;2023-06-19T07:52:08;99706.93;;;19.64;60.82
79690;BME280;69156;55.932;-3.238;2023-06-19T07:54:56;99705.97;;;19.48;60.39
79690;BME280;69156;55.932;-3.238;2023-06-19T07:57:04;99699.60;;;19.48;59.38
79690;BME280;69156;55.932;-3.238;2023-06-19T07:59:28;99700.07;;;19.53;59.37
79690;BME280;69156;55.932;-3.238;2023-06-19T08:02:01;99704.86;;;19.51;59.50
79690;BME280;69156;55.932;-3.238;2023-06-19T08:04:21;99703.90;;;19.69;59.22
79690;BME280;69156;55.932;-3.238;2023-06-19T08:06:45;99702.14;;;19.57;57.24
79690;BME280;69156;55.932;-3.238;2023-06-19T08:09:12;99710.82;;;19.60;57.54
79690;BME280;69156;55.932;-3.238;2023-06-19T08:11:35;99705.41;;;19.61;57.20
79690;BME280;69156;55.932;-3.238;2023-06-19T08:14:04;99703.32;;;19.63;57.45
79690;BME280;69156;55.932;-3.238;2023-06-19T08:16:34;99712.82;;;19.75;57.94
79690;BME280;69156;55.932;-3.238;2023-06-19T08:18:56;99715.29;;;19.79;59.01
79690;BME280;69156;55.932;-3.238;2023-06-19T08:21:21;99721.07;;;19.85;58.37
79690;BME280;69156;55.932;-3.238;2023-06-19T08:23:48;99719.85;;;19.81;57.86
79690;BME280;69156;55.932;-3.238;2023-06-19T08:26:13;99722.86;;;19.72;57.33
79690;BME280;69156;55.932;-3.238;2023-06-19T08:28:38;99724.22;;;19.99;56.69
79690;BME280;69156;55.932;-3.238;2023-06-19T08:31:04;99726.28;;;19.96;57.18
79690;BME280;69156;55.932;-3.238;2023-06-19T08:33:30;99729.19;;;19.91;56.41
79690;BME280;69156;55.932;-3.238;2023-06-19T08:36:00;99726.46;;;20.05;56.89
79690;BME280;69156;55.932;-3.238;2023-06-19T08:38:23;99719.82;;;20.07;57.18
79690;BME280;69156;55.932;-3.238;2023-06-19T08:40:49;99728.86;;;19.95;57.37
79690;BME280;69156;55.932;-3.238;2023-06-19T08:43:16;99733.19;;;20.09;56.70
79690;BME280;69156;55.932;-3.238;2023-06-19T08:45:41;99726.48;;;20.10;57.17
79690;BME280;69156;55.932;-3.238;2023-06-19T08:48:15;99732.36;;;20.20;56.38
79690;BME280;69156;55.932;-3.238;2023-06-19T08:50:39;99735.17;;;20.10;55.67
79690;BME280;69156;55.932;-3.238;2023-06-19T08:53:05;99739.86;;;19.90;56.02
79690;BME280;69156;55.932;-3.238;2023-06-19T08:55:30;99736.79;;;19.81;56.16
79690;BME280;69156;55.932;-3.238;2023-06-19T08:57:57;99735.21;;;20.04;55.48
79690;BME280;69156;55.932;-3.238;2023-06-19T09:00:24;99736.87;;;19.95;55.97
79690;BME280;69156;55.932;-3.238;2023-06-19T09:02:51;99742.47;;;19.93;53.40
79690;BME280;69156;55.932;-3.238;2023-06-19T09:05:15;99738.74;;;19.90;54.68
79690;BME280;69156;55.932;-3.238;2023-06-19T09:07:41;99747.32;;;19.77;54.46
79690;BME280;69156;55.932;-3.238;2023-06-19T09:10:38;99750.64;;;19.68;54.12
79690;BME280;69156;55.932;-3.238;2023-06-19T09:12:35;99752.61;;;19.89;54.36
79690;BME280;69156;55.932;-3.238;2023-06-19T09:14:58;99757.00;;;19.77;55.41
79690;BME280;69156;55.932;-3.238;2023-06-19T09:17:23;99754.73;;;19.78;55.27
79690;BME280;69156;55.932;-3.238;2023-06-19T09:19:55;99755.93;;;19.89;55.02
79690;BME280;69156;55.932;-3.238;2023-06-19T09:22:16;99760.04;;;19.86;56.20
79690;BME280;69156;55.932;-3.238;2023-06-19T09:24:40;99768.35;;;19.74;54.40
79690;BME280;69156;55.932;-3.238;2023-06-19T09:27:32;99758.65;;;19.96;55.54
79690;BME280;69156;55.932;-3.238;2023-06-19T09:29:52;99757.20;;;20.09;55.14
79690;BME280;69156;55.932;-3.238;2023-06-19T09:32:23;99757.60;;;20.27;54.31
79690;BME280;69156;55.932;-3.238;2023-06-19T09:35:09;99766.18;;;20.35;54.33
79690;BME280;69156;55.932;-3.238;2023-06-19T09:37:29;99756.66;;;20.27;55.02
79690;BME280;69156;55.932;-3.238;2023-06-19T09:39:42;99751.67;;;20.18;52.86
79690;BME280;69156;55.932;-3.238;2023-06-19T09:42:24;99751.50;;;20.39;53.93
79690;BME280;69156;55.932;-3.238;2023-06-19T09:44:41;99763.14;;;20.31;53.83
79690;BME280;69156;55.932;-3.238;2023-06-19T09:47:12;99762.29;;;20.47;53.67
79690;BME280;69156;55.932;-3.238;2023-06-19T09:49:35;99764.55;;;20.75;52.37
79690;BME280;69156;55.932;-3.238;2023-06-19T09:52:00;99758.41;;;20.76;52.10
79690;BME280;69156;55.932;-3.238;2023-06-19T09:54:25;99761.61;;;20.76;51.69
79690;BME280;69156;55.932;-3.238;2023-06-19T09:56:49;99762.97;;;20.93;50.76
79690;BME280;69156;55.932;-3.238;2023-06-19T09:59:25;99759.03;;;20.84;51.01
79690;BME280;69156;55.932;-3.238;2023-06-19T10:01:46;99757.51;;;20.85;49.95
79690;BME280;69156;55.932;-3.238;2023-06-19T10:04:13;99753.14;;;20.89;50.43
79690;BME280;69156;55.932;-3.238;2023-06-19T10:06:43;99752.20;;;21.11;49.02
79690;BME280;69156;55.932;-3.238;2023-06-19T10:09:21;99757.01;;;21.06;48.22
79690;BME280;69156;55.932;-3.238;2023-06-19T10:11:45;99756.68;;;21.15;48.58
79690;BME280;69156;55.932;-3.238;2023-06-19T10:14:06;99758.18;;;21.12;49.36
79690;BME280;69156;55.932;-3.238;2023-06-19T10:16:21;99755.74;;;21.17;48.76
79690;BME280;69156;55.932;-3.238;2023-06-19T10:18:50;99755.06;;;21.24;49.45
79690;BME280;69156;55.932;-3.238;2023-06-19T10:21:18;99757.92;;;21.35;48.69
79690;BME280;69156;55.932;-3.238;2023-06-19T10:23:42;99763.11;;;21.15;48.72
79690;BME280;69156;55.932;-3.238;2023-06-19T10:26:15;99769.01;;;21.26;49.35
79690;BME280;69156;55.932;-3.238;2023-06-19T10:28:39;99761.61;;;21.23;49.50
79690;BME280;69156;55.932;-3.238;2023-06-19T10:31:06;99766.06;;;21.17;49.91
79690;BME280;69156;55.932;-3.238;2023-06-19T10:33:37;99766.47;;;21.45;49.74
79690;BME280;69156;55.932;-3.238;2023-06-19T10:36:01;99768.24;;;21.58;49.29
79690;BME280;69156;55.932;-3.238;2023-06-19T10:38:27;99766.56;;;21.63;49.31
79690;BME280;69156;55.932;-3.238;2023-06-19T10:40:53;99765.94;;;21.58;48.67
79690;BME280;69156;55.932;-3.238;2023-06-19T10:43:22;99764.23;;;21.63;49.49
79690;BME280;69156;55.932;-3.238;2023-06-19T10:45:46;99764.60;;;21.68;48.92
79690;BME280;69156;55.932;-3.238;2023-06-19T10:48:10;99763.35;;;21.36;48.44
79690;BME280;69156;55.932;-3.238;2023-06-19T10:50:42;99759.99;;;21.32;49.26
79690;BME280;69156;55.932;-3.238;2023-06-19T10:53:01;99762.31;;;21.27;49.76
79690;BME280;69156;55.932;-3.238;2023-06-19T10:55:31;99761.96;;;21.55;50.21
79690;BME280;69156;55.932;-3.238;2023-06-19T10:57:56;99771.75;;;21.67;50.00
79690;BME280;69156;55.932;-3.238;2023-06-19T11:00:31;99772.55;;;21.82;49.69
79690;BME280;69156;55.932;-3.238;2023-06-19T11:02:49;99775.93;;;21.77;50.99
79690;BME280;69156;55.932;-3.238;2023-06-19T11:05:13;99772.04;;;21.93;50.31
79690;BME280;69156;55.932;-3.238;2023-06-19T11:07:40;99773.11;;;21.89;50.44
79690;BME280;69156;55.932;-3.238;2023-06-19T11:10:20;99775.83;;;21.96;50.09
79690;BME280;69156;55.932;-3.238;2023-06-19T11:12:32;99778.61;;;21.91;49.48
79690;BME280;69156;55.932;-3.238;2023-06-19T11:14:56;99768.45;;;22.13;49.07
79690;BME280;69156;55.932;-3.238;2023-06-19T11:17:31;99781.97;;;22.30;49.42
79690;BME280;69156;55.932;-3.238;2023-06-19T11:19:53;99785.59;;;21.90;49.39
79690;BME280;69156;55.932;-3.238;2023-06-19T11:22:36;99787.09;;;21.82;50.19
79690;BME280;69156;55.932;-3.238;2023-06-19T11:24:48;99786.76;;;21.61;49.83
79690;BME280;69156;55.932;-3.238;2023-06-19T11:27:17;99784.53;;;21.51;50.71
79690;BME280;69156;55.932;-3.238;2023-06-19T11:29:39;99789.46;;;21.75;49.38
79690;BME280;69156;55.932;-3.238;2023-06-19T11:32:06;99788.73;;;21.79;50.09
79690;BME280;69156;55.932;-3.238;2023-06-19T11:34:32;99786.59;;;22.03;49.53
79690;BME280;69156;55.932;-3.238;2023-06-19T11:36:56;99790.71;;;22.08;50.35
79690;BME280;69156;55.932;-3.238;2023-06-19T11:39:22;99787.51;;;22.08;50.85
79690;BME280;69156;55.932;-3.238;2023-06-19T11:41:47;99793.08;;;22.11;49.74
79690;BME280;69156;55.932;-3.238;2023-06-19T11:44:12;99785.07;;;22.18;49.93
79690;BME280;69156;55.932;-3.238;2023-06-19T11:46:37;99785.16;;;22.32;50.53
79690;BME280;69156;55.932;-3.238;2023-06-19T11:49:18;99786.74;;;22.23;49.96
79690;BME280;69156;55.932;-3.238;2023-06-19T11:51:28;99790.39;;;22.41;49.96
79690;BME280;69156;55.932;-3.238;2023-06-19T11:53:53;99787.62;;;22.66;49.81
79690;BME280;69156;55.932;-3.238;2023-06-19T11:56:19;99782.15;;;22.98;47.32
79690;BME280;69156;55.932;-3.238;2023-06-19T11:58:45;99781.07;;;22.94;48.31
79690;BME280;69156;55.932;-3.238;2023-06-19T12:01:11;99774.92;;;22.98;48.31
79690;BME280;69156;55.932;-3.238;2023-06-19T12:03:37;99777.44;;;23.29;47.91
79690;BME280;69156;55.932;-3.238;2023-06-19T12:06:02;99775.26;;;23.26;47.60
79690;BME280;69156;55.932;-3.238;2023-06-19T12:08:27;99777.93;;;23.09;48.17
79690;BME280;69156;55.932;-3.238;2023-06-19T12:10:53;99774.99;;;23.17;47.93
79690;BME280;69156;55.932;-3.238;2023-06-19T12:13:20;99765.84;;;23.32;46.66
79690;BME280;69156;55.932;-3.238;2023-06-19T12:15:45;99769.01;;;23.47;46.98
79690;BME280;69156;55.932;-3.238;2023-06-19T12:18:11;99773.49;;;23.71;45.80
79690;BME280;69156;55.932;-3.238;2023-06-19T12:20:35;99773.37;;;23.50;44.21
79690;BME280;69156;55.932;-3.238;2023-06-19T12:23:01;99774.94;;;23.68;44.76
79690;BME280;69156;55.932;-3.238;2023-06-19T12:25:26;99776.92;;;23.74;45.19
79690;BME280;69156;55.932;-3.238;2023-06-19T12:27:51;99785.39;;;23.96;44.48
79690;BME280;69156;55.932;-3.238;2023-06-19T12:30:17;99778.16;;;24.27;43.21
79690;BME280;69156;55.932;-3.238;2023-06-19T12:32:42;99777.92;;;23.79;44.98
79690;BME280;69156;55.932;-3.238;2023-06-19T12:35:08;99783.87;;;23.59;44.56
79690;BME280;69156;55.932;-3.238;2023-06-19T12:37:33;99786.94;;;23.13;46.12
79690;BME280;69156;55.932;-3.238;2023-06-19T12:39:59;99785.07;;;23.10;48.28
79690;BME280;69156;55.932;-3.238;2023-06-19T12:42:24;99783.38;;;22.79;50.01
79690;BME280;69156;55.932;-3.238;2023-06-19T12:44:50;99790.89;;;22.79;49.84